createdAt,value
2023-02-28T00:01:36.337Z,54.29
2023-02-28T00:04:03.853Z,53.83
2023-02-28T00:06:32.015Z,53.08
2023-02-28T00:08:59.271Z,52.89
2023-02-28T00:11:26.537Z,51.98
2023-02-28T00:13:53.866Z,52.32
2023-02-28T00:16:23.279Z,52.22
2023-02-28T00:18:51.624Z,52.56
2023-02-28T00:21:19.721Z,52.91
2023-02-28T00:23:48.346Z,52.19
2023-02-28T00:26:17.184Z,51.46
2023-02-28T00:28:47.526Z,51.02
2023-02-28T00:31:15.533Z,50.57
2023-02-28T00:33:42.754Z,50.44
2023-02-28T00:36:12.224Z,50.53
2023-02-28T00:38:40.322Z,51.16
2023-02-28T00:41:08.696Z,51.32
2023-02-28T00:43:37.883Z,51.78
2023-02-28T00:46:05.604Z,51.50
2023-02-28T00:48:33.516Z,51.64
2023-02-28T00:51:01.409Z,51.70
2023-02-28T00:53:28.863Z,52.09
2023-02-28T00:55:58.338Z,52.25
2023-02-28T00:58:28.030Z,52.63
2023-02-28T01:00:55.700Z,52.20
2023-02-28T01:03:23.965Z,52.55
2023-02-28T01:05:51.720Z,53.09
2023-02-28T01:08:19.282Z,52.36
2023-02-28T01:10:46.563Z,52.01
2023-02-28T01:13:14.036Z,52.18
2023-02-28T01:15:44.730Z,52.16
2023-02-28T01:18:13.004Z,51.94
2023-02-28T01:20:40.631Z,51.73
2023-02-28T01:23:07.700Z,52.53
2023-02-28T01:25:38.815Z,51.51
2023-02-28T01:28:07.312Z,51.41
2023-02-28T01:30:35.652Z,51.87
2023-02-28T01:33:02.989Z,51.66
2023-02-28T01:35:34.856Z,51.30
2023-02-28T01:38:15.685Z,51.06
2023-02-28T01:40:48.360Z,50.66
2023-02-28T01:43:54.668Z,51.06
2023-02-28T01:46:22.316Z,51.57
2023-02-28T01:48:58.729Z,51.57
2023-02-28T01:51:51.978Z,51.68
2023-02-28T01:54:30.110Z,51.60
2023-02-28T01:57:10.275Z,52.23
2023-02-28T01:59:47.492Z,52.54
2023-02-28T02:02:15.927Z,52.94
2023-02-28T02:05:07.216Z,53.39
2023-02-28T02:07:39.849Z,54.22
2023-02-28T02:10:17.761Z,54.27
2023-02-28T02:12:45.781Z,55.17
2023-02-28T02:15:24.234Z,55.52
2023-02-28T02:17:57.504Z,55.72
2023-02-28T02:20:31.039Z,55.61
2023-02-28T02:23:19.564Z,55.77
2023-02-28T02:26:22.479Z,55.13
2023-02-28T02:29:08.199Z,54.85
2023-02-28T02:32:06.141Z,55.11
2023-02-28T02:34:41.934Z,54.83
2023-02-28T02:37:25.418Z,55.54
2023-02-28T02:40:04.041Z,55.62
2023-02-28T02:42:43.828Z,55.20
2023-02-28T02:45:18.683Z,54.70
2023-02-28T02:47:46.477Z,54.28
2023-02-28T02:50:23.818Z,55.75
2023-02-28T02:52:57.061Z,56.02
2023-02-28T02:55:25.905Z,56.36
2023-02-28T02:58:02.611Z,56.47
2023-02-28T03:00:47.904Z,56.96
2023-02-28T03:03:18.795Z,56.25
2023-02-28T03:05:48.044Z,56.18
2023-02-28T03:08:15.766Z,56.26
2023-02-28T03:10:44.978Z,56.82
2023-02-28T03:13:35.053Z,57.79
2023-02-28T03:16:11.227Z,57.79
2023-02-28T03:19:12.563Z,57.43
2023-02-28T03:21:42.823Z,57.78
2023-02-28T03:24:13.579Z,57.94
2023-02-28T03:26:46.446Z,58.03
2023-02-28T03:29:21.998Z,58.32
2023-02-28T03:32:06.922Z,59.79
2023-02-28T03:34:44.712Z,60.19
2023-02-28T03:37:20.228Z,60.31
2023-02-28T03:39:55.237Z,60.53
2023-02-28T03:42:27.152Z,60.50
2023-02-28T03:45:01.797Z,61.28
2023-02-28T03:47:36.863Z,61.45
2023-02-28T03:50:14.514Z,61.58
2023-02-28T03:52:52.589Z,61.91
2023-02-28T03:55:21.946Z,61.66
2023-02-28T03:58:09.304Z,63.21
2023-02-28T04:00:41.441Z,62.72
2023-02-28T04:03:08.618Z,62.45
2023-02-28T04:05:53.729Z,64.00
2023-02-28T04:08:21.778Z,62.82
2023-02-28T04:10:57.651Z,64.00
2023-02-28T04:13:25.394Z,63.34
2023-02-28T04:15:54.807Z,63.45
2023-02-28T04:18:22.634Z,63.44
2023-02-28T04:20:50.480Z,63.47
2023-02-28T04:23:17.783Z,63.47
2023-02-28T04:25:44.842Z,63.01
2023-02-28T04:28:12.032Z,62.70
2023-02-28T04:30:40.284Z,62.96
2023-02-28T04:33:07.597Z,62.91
2023-02-28T04:35:34.652Z,62.78
2023-02-28T04:38:01.706Z,62.66
2023-02-28T04:40:28.932Z,62.50
2023-02-28T04:42:56.316Z,61.96
2023-02-28T04:45:23.466Z,62.77
2023-02-28T04:47:50.982Z,62.82
2023-02-28T04:50:18.130Z,62.64
2023-02-28T04:52:45.337Z,62.54
2023-02-28T04:55:12.431Z,62.16
2023-02-28T04:57:43.767Z,62.37
2023-02-28T05:00:12.810Z,62.23
2023-02-28T05:02:40.649Z,62.42
2023-02-28T05:05:07.955Z,62.72
2023-02-28T05:07:35.679Z,62.59
2023-02-28T05:10:02.709Z,62.39
2023-02-28T05:12:30.544Z,61.75
2023-02-28T05:14:57.809Z,60.81
2023-02-28T05:17:25.012Z,60.90
2023-02-28T05:19:52.080Z,60.95
2023-02-28T05:22:19.158Z,61.56
2023-02-28T05:24:46.592Z,61.03
2023-02-28T05:27:13.998Z,61.61
2023-02-28T05:29:44.430Z,61.20
2023-02-28T05:32:14.812Z,61.42
2023-02-28T05:34:42.944Z,60.85
2023-02-28T05:37:14.144Z,61.68
2023-02-28T05:39:41.484Z,61.63
2023-02-28T05:42:08.981Z,62.01
2023-02-28T05:44:37.510Z,62.04
2023-02-28T05:47:04.725Z,62.57
2023-02-28T05:49:32.072Z,62.87
2023-02-28T05:51:59.209Z,62.88
2023-02-28T05:54:26.583Z,63.38
2023-02-28T05:56:53.830Z,63.39
2023-02-28T05:59:21.088Z,63.78
2023-02-28T06:01:50.917Z,64.13
2023-02-28T06:04:31.017Z,64.20
2023-02-28T06:06:59.133Z,64.05
2023-02-28T06:09:26.390Z,63.77
2023-02-28T06:11:53.541Z,63.95
2023-02-28T06:14:21.832Z,64.48
2023-02-28T06:16:49.063Z,64.34
2023-02-28T06:19:16.734Z,64.43
2023-02-28T06:21:45.072Z,64.08
2023-02-28T06:24:12.257Z,63.78
2023-02-28T06:26:39.552Z,63.93
2023-02-28T06:29:08.382Z,63.80
2023-02-28T06:31:35.494Z,64.25
2023-02-28T06:34:02.904Z,63.78
2023-02-28T06:36:29.990Z,63.45
2023-02-28T06:38:58.783Z,63.28
2023-02-28T06:41:27.658Z,63.46
2023-02-28T06:43:55.519Z,63.01
2023-02-28T06:46:22.901Z,61.99
2023-02-28T06:48:50.183Z,61.85
2023-02-28T06:51:21.546Z,62.02
2023-02-28T06:53:49.034Z,60.94
2023-02-28T06:56:17.894Z,60.62
2023-02-28T06:58:50.082Z,59.72
2023-02-28T07:01:17.536Z,59.24
2023-02-28T07:03:44.709Z,59.14
2023-02-28T07:06:11.843Z,58.82
2023-02-28T07:08:41.332Z,59.58
2023-02-28T07:11:08.620Z,60.38
2023-02-28T07:13:36.364Z,59.93
2023-02-28T07:16:06.084Z,60.24
2023-02-28T07:18:33.698Z,60.22
2023-02-28T07:21:03.816Z,60.39
2023-02-28T07:23:31.158Z,60.18
2023-02-28T07:25:58.312Z,60.19
2023-02-28T07:28:26.163Z,60.10
2023-02-28T07:30:53.497Z,60.39
2023-02-28T07:33:20.771Z,60.48
2023-02-28T07:35:48.493Z,60.41
2023-02-28T07:38:15.743Z,60.19
2023-02-28T07:40:43.229Z,60.69
2023-02-28T07:43:10.357Z,60.63
2023-02-28T07:45:40.382Z,60.75
2023-02-28T07:48:07.809Z,60.83
2023-02-28T07:50:36.237Z,60.90
2023-02-28T07:53:03.477Z,60.59
2023-02-28T07:55:31.785Z,60.53
2023-02-28T07:57:59.521Z,60.51
2023-02-28T08:00:27.135Z,60.55
2023-02-28T08:02:54.353Z,60.95
2023-02-28T08:05:22.326Z,61.18
2023-02-28T08:07:50.723Z,61.71
2023-02-28T08:10:18.025Z,62.24
2023-02-28T08:12:45.272Z,62.49
2023-02-28T08:15:12.530Z,63.35
2023-02-28T08:17:40.644Z,63.34
2023-02-28T08:20:09.082Z,63.52
2023-02-28T08:22:36.373Z,64.21
2023-02-28T08:25:03.819Z,65.04
2023-02-28T08:27:30.971Z,65.33
2023-02-28T08:29:58.338Z,65.80
2023-02-28T08:32:30.419Z,65.60
2023-02-28T08:34:58.699Z,65.88
2023-02-28T08:37:26.445Z,65.87
2023-02-28T08:39:56.273Z,65.65
2023-02-28T08:42:25.175Z,66.01
2023-02-28T08:44:52.436Z,66.39
2023-02-28T08:47:19.853Z,66.69
2023-02-28T08:49:47.327Z,66.56
2023-02-28T08:52:14.433Z,66.83
2023-02-28T08:54:42.280Z,67.87
2023-02-28T08:57:09.576Z,68.36
2023-02-28T08:59:36.705Z,69.02
2023-02-28T09:02:04.435Z,69.21
2023-02-28T09:04:34.776Z,69.08
2023-02-28T09:07:01.933Z,68.76
2023-02-28T09:09:29.208Z,68.30
2023-02-28T09:11:59.622Z,68.49
2023-02-28T09:14:27.001Z,67.83
2023-02-28T09:16:54.273Z,67.94
2023-02-28T09:19:21.782Z,67.84
2023-02-28T09:21:49.184Z,68.09
2023-02-28T09:24:16.624Z,68.87
2023-02-28T09:26:56.493Z,69.24
2023-02-28T09:29:32.483Z,69.11
2023-02-28T09:32:02.394Z,69.35
2023-02-28T09:34:32.094Z,70.10
2023-02-28T09:36:59.344Z,70.40
2023-02-28T09:39:28.062Z,70.29
2023-02-28T09:41:57.343Z,70.01
2023-02-28T09:44:39.899Z,71.04
2023-02-28T09:47:23.207Z,71.14
2023-02-28T09:49:50.681Z,70.83
2023-02-28T09:52:31.244Z,71.50
2023-02-28T09:55:19.434Z,70.92
2023-02-28T09:57:47.471Z,70.83
2023-02-28T10:00:35.167Z,71.59
2023-02-28T10:03:30.166Z,71.74
2023-02-28T10:06:18.204Z,72.89
2023-02-28T10:08:57.217Z,71.72
2023-02-28T10:11:26.354Z,71.63
2023-02-28T10:14:05.622Z,73.00
2023-02-28T10:16:37.038Z,71.77
2023-02-28T10:19:33.812Z,72.91
2023-02-28T10:22:25.791Z,72.50
2023-02-28T10:24:54.895Z,71.58
2023-02-28T10:27:24.964Z,71.08
2023-02-28T10:29:58.160Z,72.22
2023-02-28T10:32:33.292Z,73.22
2023-02-28T10:35:02.376Z,74.13
2023-02-28T10:37:36.835Z,74.74
2023-02-28T10:40:07.697Z,75.56
2023-02-28T10:42:35.000Z,75.91
2023-02-28T10:45:12.489Z,75.53
2023-02-28T10:48:06.258Z,76.73
2023-02-28T10:50:48.641Z,75.15
2023-02-28T10:53:27.791Z,74.87
2023-02-28T10:56:05.590Z,75.45
2023-02-28T10:59:01.601Z,76.12
2023-02-28T11:01:40.029Z,75.61
2023-02-28T11:04:40.792Z,77.12
2023-02-28T11:07:41.467Z,76.43
2023-02-28T11:10:27.262Z,76.20
2023-02-28T11:13:00.538Z,76.79
2023-02-28T11:15:32.205Z,76.76
2023-02-28T11:18:17.269Z,76.87
2023-02-28T11:20:51.148Z,76.87
2023-02-28T11:23:20.194Z,75.82
2023-02-28T11:25:58.717Z,74.51
2023-02-28T11:28:33.716Z,74.25
2023-02-28T11:31:15.832Z,74.06
2023-02-28T11:34:24.288Z,73.56
2023-02-28T11:36:54.230Z,73.53
2023-02-28T11:39:22.553Z,74.24
2023-02-28T11:42:25.316Z,75.50
2023-02-28T11:45:24.064Z,75.89
2023-02-28T11:48:18.719Z,75.55
2023-02-28T11:51:09.608Z,76.08
2023-02-28T11:54:05.136Z,77.47
2023-02-28T11:56:48.144Z,77.71
2023-02-28T11:59:39.551Z,77.87
2023-02-28T12:02:25.542Z,78.08
2023-02-28T12:05:40.454Z,77.82
2023-02-28T12:08:28.395Z,77.30
2023-02-28T12:11:09.449Z,78.18
2023-02-28T12:13:50.644Z,78.52
2023-02-28T12:17:03.998Z,78.15
2023-02-28T12:19:56.665Z,77.65
2023-02-28T12:22:30.230Z,78.39
2023-02-28T12:25:31.373Z,78.96
2023-02-28T12:27:59.076Z,77.83
2023-02-28T12:30:29.412Z,77.76
2023-02-28T12:33:03.909Z,78.54
2023-02-28T12:35:50.609Z,78.27
2023-02-28T12:38:24.904Z,78.35
2023-02-28T12:41:03.864Z,77.98
2023-02-28T12:43:35.806Z,77.98
2023-02-28T12:46:26.130Z,77.80
2023-02-28T12:49:03.263Z,77.49
2023-02-28T12:51:30.796Z,77.11
2023-02-28T12:54:04.824Z,77.37
2023-02-28T12:56:59.240Z,77.86
2023-02-28T12:59:29.510Z,78.18
2023-02-28T13:02:40.272Z,78.72
2023-02-28T13:05:46.803Z,79.48
2023-02-28T13:08:39.131Z,79.20
2023-02-28T13:11:13.099Z,78.51
2023-02-28T13:13:47.067Z,78.93
2023-02-28T13:16:14.374Z,79.07
2023-02-28T13:18:45.994Z,78.97
2023-02-28T13:21:32.434Z,79.46
2023-02-28T13:24:03.339Z,79.28
2023-02-28T13:26:39.703Z,80.28
2023-02-28T13:29:16.997Z,80.31
2023-02-28T13:32:09.599Z,79.96
2023-02-28T13:34:53.050Z,80.41
2023-02-28T13:37:23.459Z,80.20
2023-02-28T13:39:52.973Z,80.04
2023-02-28T13:42:23.234Z,80.18
2023-02-28T13:45:05.577Z,80.94
2023-02-28T13:47:36.446Z,80.06
2023-02-28T13:50:25.402Z,80.75
2023-02-28T13:52:58.698Z,80.77
2023-02-28T13:55:33.690Z,80.80
2023-02-28T13:58:17.126Z,81.56
2023-02-28T14:00:54.162Z,80.59
2023-02-28T14:03:33.874Z,79.95
2023-02-28T14:06:26.724Z,79.60
2023-02-28T14:09:05.081Z,78.74
2023-02-28T14:11:38.439Z,79.33
2023-02-28T14:14:07.455Z,78.46
2023-02-28T14:16:45.724Z,79.23
2023-02-28T14:19:24.713Z,79.69
2023-02-28T14:22:30.853Z,80.01
2023-02-28T14:25:29.974Z,80.27
2023-02-28T14:28:15.145Z,80.74
2023-02-28T14:30:59.862Z,81.43
2023-02-28T14:33:45.623Z,81.25
2023-02-28T14:36:24.581Z,81.55
2023-02-28T14:38:55.185Z,81.24
2023-02-28T14:41:33.495Z,81.44
2023-02-28T14:44:02.642Z,81.22
2023-02-28T14:46:38.443Z,82.15
2023-02-28T14:49:20.107Z,81.99
2023-02-28T14:51:52.037Z,82.06
2023-02-28T14:54:25.316Z,81.18
2023-02-28T14:56:52.959Z,81.45
2023-02-28T14:59:27.999Z,80.75
2023-02-28T15:02:31.313Z,80.04
2023-02-28T15:05:02.077Z,79.30
2023-02-28T15:07:30.153Z,79.47
2023-02-28T15:10:13.026Z,80.44
2023-02-28T15:12:42.387Z,79.06
2023-02-28T15:15:17.742Z,79.25
2023-02-28T15:17:58.699Z,78.67
2023-02-28T15:20:27.515Z,78.27
2023-02-28T15:22:58.202Z,78.08
2023-02-28T15:25:26.832Z,77.67
2023-02-28T15:27:58.778Z,76.69
2023-02-28T15:30:31.162Z,76.63
2023-02-28T15:33:31.760Z,76.49
2023-02-28T15:36:15.140Z,76.01
2023-02-28T15:38:43.720Z,75.43
2023-02-28T15:41:36.868Z,75.33
2023-02-28T15:44:25.534Z,75.50
2023-02-28T15:47:02.449Z,74.39
2023-02-28T15:49:42.667Z,74.94
2023-02-28T15:52:17.818Z,74.77
2023-02-28T15:54:46.228Z,74.73
2023-02-28T15:57:27.395Z,73.88
2023-02-28T15:59:58.714Z,73.88
2023-02-28T16:02:33.815Z,73.50
2023-02-28T16:05:07.234Z,73.45
2023-02-28T16:07:36.034Z,73.80
2023-02-28T16:10:04.206Z,73.16
2023-02-28T16:12:33.637Z,73.22
2023-02-28T16:15:05.687Z,73.96
2023-02-28T16:17:36.119Z,72.88
2023-02-28T16:20:13.939Z,72.06
2023-02-28T16:22:43.075Z,72.35
2023-02-28T16:25:21.237Z,72.45
2023-02-28T16:27:52.100Z,72.74
2023-02-28T16:30:26.258Z,72.01
2023-02-28T16:32:55.202Z,71.69
2023-02-28T16:35:23.100Z,72.40
2023-02-28T16:37:52.968Z,72.62
2023-02-28T16:40:24.663Z,71.58
2023-02-28T16:42:53.843Z,71.96
2023-02-28T16:45:30.243Z,71.15
2023-02-28T16:47:58.363Z,71.03
2023-02-28T16:50:28.927Z,71.41
2023-02-28T16:52:56.752Z,70.97
2023-02-28T16:55:25.788Z,70.77
2023-02-28T16:58:01.052Z,70.96
2023-02-28T17:00:30.676Z,70.45
2023-02-28T17:02:58.612Z,71.60
2023-02-28T17:05:28.153Z,71.38
2023-02-28T17:07:55.452Z,70.82
2023-02-28T17:10:28.216Z,70.08
2023-02-28T17:13:06.008Z,70.48
2023-02-28T17:15:38.010Z,69.64
2023-02-28T17:18:06.725Z,69.89
2023-02-28T17:20:34.333Z,69.77
2023-02-28T17:23:01.890Z,69.83
2023-02-28T17:25:28.936Z,69.79
2023-02-28T17:27:58.412Z,69.83
2023-02-28T17:30:29.594Z,69.71
2023-02-28T17:32:57.982Z,69.34
2023-02-28T17:35:25.440Z,68.87
2023-02-28T17:37:53.073Z,68.65
2023-02-28T17:40:25.282Z,69.63
2023-02-28T17:42:56.550Z,68.50
2023-02-28T17:45:24.036Z,68.50
2023-02-28T17:47:51.649Z,68.34
2023-02-28T17:50:21.625Z,68.58
2023-02-28T17:52:49.247Z,69.32
2023-02-28T17:55:16.840Z,68.74
2023-02-28T17:57:48.388Z,68.82
2023-02-28T18:00:18.633Z,68.43
2023-02-28T18:02:49.121Z,68.71
2023-02-28T18:05:16.342Z,68.28
2023-02-28T18:07:44.010Z,68.21
2023-02-28T18:10:17.038Z,67.13
2023-02-28T18:12:45.196Z,67.30
2023-02-28T18:15:13.202Z,67.45
2023-02-28T18:17:41.486Z,67.69
2023-02-28T18:20:10.839Z,67.33
2023-02-28T18:22:39.668Z,66.81
2023-02-28T18:25:11.942Z,67.04
2023-02-28T18:27:39.831Z,66.94
2023-02-28T18:30:07.934Z,66.72
2023-02-28T18:32:35.818Z,66.20
2023-02-28T18:35:02.911Z,65.94
2023-02-28T18:37:31.227Z,66.22
2023-02-28T18:39:58.613Z,66.43
2023-02-28T18:42:25.778Z,66.03
2023-02-28T18:44:52.824Z,65.91
2023-02-28T18:47:20.098Z,66.52
2023-02-28T18:49:47.612Z,67.00
2023-02-28T18:52:20.784Z,66.36
2023-02-28T18:54:51.922Z,66.67
2023-02-28T18:57:19.116Z,66.50
2023-02-28T18:59:46.524Z,66.63
2023-02-28T19:02:13.795Z,66.77
2023-02-28T19:04:41.993Z,66.54
2023-02-28T19:07:09.261Z,67.27
2023-02-28T19:09:36.385Z,66.88
2023-02-28T19:12:03.595Z,67.20
2023-02-28T19:14:30.664Z,66.45
2023-02-28T19:16:59.260Z,66.13
2023-02-28T19:19:27.115Z,66.44
2023-02-28T19:21:56.355Z,66.13
2023-02-28T19:24:23.691Z,66.07
2023-02-28T19:26:50.820Z,66.02
2023-02-28T19:29:18.087Z,65.82
2023-02-28T19:31:45.369Z,65.81
2023-02-28T19:34:12.678Z,65.02
2023-02-28T19:36:39.748Z,64.79
2023-02-28T19:39:07.099Z,65.13
2023-02-28T19:41:34.280Z,65.07
2023-02-28T19:44:01.413Z,65.12
2023-02-28T19:46:29.411Z,64.67
2023-02-28T19:49:00.205Z,64.32
2023-02-28T19:51:29.065Z,63.93
2023-02-28T19:53:56.360Z,63.78
2023-02-28T19:56:23.436Z,63.85
2023-02-28T19:58:50.676Z,63.98
2023-02-28T20:01:19.843Z,64.07
2023-02-28T20:03:50.831Z,64.18
2023-02-28T20:06:18.314Z,64.84
2023-02-28T20:08:45.396Z,64.61
2023-02-28T20:11:15.817Z,64.69
2023-02-28T20:13:44.249Z,64.78
2023-02-28T20:16:13.462Z,64.51
2023-02-28T20:18:44.307Z,64.61
2023-02-28T20:21:12.779Z,64.18
2023-02-28T20:23:43.701Z,65.31
2023-02-28T20:26:12.768Z,64.50
2023-02-28T20:28:40.418Z,64.78
2023-02-28T20:31:35.617Z,65.36
2023-02-28T20:34:03.056Z,64.43
2023-02-28T20:36:30.790Z,64.87
2023-02-28T20:39:00.664Z,64.03
2023-02-28T20:41:28.432Z,64.35
2023-02-28T20:44:00.585Z,63.94
2023-02-28T20:46:30.073Z,64.28
2023-02-28T20:49:00.559Z,64.28
2023-02-28T20:51:28.597Z,63.95
2023-02-28T20:53:55.951Z,63.42
2023-02-28T20:56:23.991Z,63.17
2023-02-28T20:58:56.614Z,63.58
2023-02-28T21:01:26.638Z,63.25
2023-02-28T21:04:02.697Z,61.89
2023-02-28T21:06:32.546Z,62.78
2023-02-28T21:09:00.207Z,62.43
2023-02-28T21:11:29.292Z,62.62
2023-02-28T21:14:00.230Z,61.47
2023-02-28T21:16:29.844Z,61.88
2023-02-28T21:19:04.194Z,62.48
2023-02-28T21:21:34.562Z,62.05
2023-02-28T21:24:01.792Z,62.62
2023-02-28T21:26:29.430Z,62.04
2023-02-28T21:29:02.014Z,62.06
2023-02-28T21:31:31.498Z,61.65
2023-02-28T21:34:00.370Z,62.11
2023-02-28T21:36:33.140Z,62.28
2023-02-28T21:39:03.905Z,62.11
2023-02-28T21:41:31.223Z,63.10
2023-02-28T21:43:58.311Z,62.47
2023-02-28T21:46:29.477Z,62.27
2023-02-28T21:48:57.890Z,62.43
2023-02-28T21:51:33.838Z,62.54
2023-02-28T21:54:01.570Z,63.10
2023-02-28T21:56:31.910Z,62.64
2023-02-28T21:59:01.036Z,62.11
2023-02-28T22:01:31.990Z,61.68
2023-02-28T22:04:00.103Z,62.20
2023-02-28T22:06:33.270Z,62.38
2023-02-28T22:09:02.585Z,61.95
2023-02-28T22:11:29.835Z,62.34
2023-02-28T22:13:59.480Z,62.13
2023-02-28T22:16:33.216Z,61.96
2023-02-28T22:19:08.173Z,62.79
2023-02-28T22:21:36.508Z,62.74
2023-02-28T22:24:04.893Z,62.93
2023-02-28T22:26:32.540Z,62.75
2023-02-28T22:29:00.336Z,63.53
2023-02-28T22:31:30.225Z,63.42
2023-02-28T22:34:00.224Z,63.90
2023-02-28T22:36:28.804Z,64.01
2023-02-28T22:38:58.024Z,64.56
2023-02-28T22:41:26.725Z,64.29
2023-02-28T22:43:56.360Z,64.21
2023-02-28T22:46:24.845Z,64.45
2023-02-28T22:48:52.623Z,64.26
2023-02-28T22:51:23.374Z,63.94
2023-02-28T22:53:52.369Z,63.91
2023-02-28T22:56:22.024Z,63.93
2023-02-28T22:58:54.477Z,63.69
2023-02-28T23:01:25.991Z,62.96
2023-02-28T23:03:56.173Z,63.81
2023-02-28T23:06:32.041Z,64.57
2023-02-28T23:09:03.666Z,64.44
2023-02-28T23:11:36.911Z,63.35
2023-02-28T23:14:05.474Z,64.13
2023-02-28T23:16:42.251Z,63.90
2023-02-28T23:19:16.042Z,63.44
2023-02-28T23:21:44.547Z,63.07
2023-02-28T23:24:14.431Z,63.05
2023-02-28T23:26:45.393Z,62.18
2023-02-28T23:29:14.276Z,62.78
2023-02-28T23:31:41.709Z,62.33
2023-02-28T23:34:09.373Z,62.11
2023-02-28T23:36:43.757Z,62.70
2023-02-28T23:39:11.163Z,62.38
2023-02-28T23:41:38.231Z,62.35
2023-02-28T23:44:05.463Z,62.13
2023-02-28T23:46:33.042Z,62.80
2023-02-28T23:49:01.591Z,62.95
2023-02-28T23:51:28.911Z,62.42
2023-02-28T23:53:56.246Z,62.67
2023-02-28T23:56:24.950Z,62.30
2023-02-28T23:58:54.511Z,62.74
